Air Resources Laboratory banner image
Air Resources Laboratory web site National Oceanic and Atmospheric Administration (NOAA)

sc metar


KAND 211056Z AUTO 04008KT 10SM CLR 08/M05 A3014 RMK AO2 SLP203 T00831050=
KCAE 211056Z 35007KT 10SM CLR 13/03 A3009 RMK AO2 SLP188 T01280028=
KCEU 211054Z AUTO 05009G16KT 10SM CLR 08/M06 A3015 RMK AO2 SLP206 T00831056=
KCHS 211056Z 35008KT 10SM FEW250 12/10 A3004 RMK AO2 SLP172 T01220100 $=
KCRE 211053Z 36011G22KT 10SM CLR 13/04 A3002 RMK AO1 SLP165 T01330044=
KCUB 211053Z AUTO VRB05KT 10SM CLR 12/03 A3010 RMK AO2 SLP192 T01170028=
KFLO 211053Z 01014KT 10SM CLR 12/03 A3007 RMK AO2 SLP179 T01170033=
KGMU 211053Z 01010G17KT 340V050 10SM CLR 07/M05 A3015 RMK AO2 PK WND 35029/1030
 SLP209 T00721050=
KGRD 211056Z AUTO 35010KT 10SM CLR 08/M03 A3014 RMK AO2 SLP205 T00781028=
KGSP 211053Z 34008KT 10SM CLR 06/M04 A3016 RMK AO2 SLP209 T00611044=
KMMT 211056Z AUTO 34012KT 10SM CLR 10/03 A3008 RMK AO2 SLP188 T01010029 $=
KMYR 211056Z 35014KT 10SM CLR 14/04 A3004 RMK AO2 SLP171 T01390039=
KNBC 211056Z AUTO 31008KT 10SM CLR 14/11 A3006 RMK AO2 SLP178 T01390111=
KOGB 211053Z AUTO 35006KT 10SM CLR 12/06 A3007 RMK AO2 SLP179 T01220061=
KSSC 211056Z AUTO 35009KT 10SM CLR 11/04 A3007 RMK AO2 SLP184 T01080043 $=
KUDG 211056Z AUTO 35012G18KT 10SM CLR 11/M01 A3009 RMK AO2 SLP195 T01111006=
KUZA 211054Z AUTO 03012G17KT 10SM CLR 08/M02 A3014 RMK AO2 PRESRR SLP205
 T00831022=